createdAt,value
2016-02-08T00:00:41.597Z,986.81
2016-02-08T00:01:41.599Z,986.84
2016-02-08T00:02:41.586Z,986.78
2016-02-08T00:03:41.589Z,986.78
2016-02-08T00:04:41.591Z,986.76
2016-02-08T00:05:41.580Z,986.75
2016-02-08T00:06:41.583Z,986.76
2016-02-08T00:07:41.586Z,986.73
2016-02-08T00:08:41.588Z,986.7
2016-02-08T00:09:41.591Z,986.68
2016-02-08T00:10:41.579Z,986.69
2016-02-08T00:11:41.582Z,986.68
2016-02-08T00:12:41.589Z,986.67
2016-02-08T00:13:41.608Z,986.66
2016-02-08T00:14:41.580Z,986.75
2016-02-08T00:15:41.583Z,986.66
2016-02-08T00:16:41.586Z,986.68
2016-02-08T00:17:41.588Z,986.69
2016-02-08T00:18:41.575Z,986.68
2016-02-08T00:19:41.580Z,986.68
2016-02-08T00:20:41.582Z,986.7
2016-02-08T00:21:41.585Z,986.63
2016-02-08T00:22:41.588Z,986.66
2016-02-08T00:23:41.575Z,986.69
2016-02-08T00:24:41.578Z,986.62
2016-02-08T00:25:41.580Z,986.62
2016-02-08T00:26:41.583Z,986.61
2016-02-08T00:27:41.572Z,986.56
2016-02-08T00:28:41.574Z,986.53
2016-02-08T00:29:41.577Z,986.5
2016-02-08T00:30:41.580Z,986.56
2016-02-08T00:31:41.583Z,986.58
2016-02-08T00:32:41.569Z,986.58
2016-02-08T00:33:41.572Z,986.61
2016-02-08T00:34:41.575Z,986.61
2016-02-08T00:35:41.567Z,986.66
2016-02-08T00:36:41.569Z,986.61
2016-02-08T00:37:41.571Z,986.58
2016-02-08T00:38:41.575Z,986.55
2016-02-08T00:39:41.577Z,986.5
2016-02-08T00:40:41.565Z,986.48
2016-02-08T00:41:41.568Z,986.45
2016-02-08T00:42:41.566Z,986.41
2016-02-08T00:43:41.568Z,986.43
2016-02-08T00:44:41.571Z,986.4
2016-02-08T00:45:41.574Z,986.43
2016-02-08T00:46:41.560Z,986.42
2016-02-08T00:47:41.563Z,986.38
2016-02-08T00:48:41.565Z,986.38
2016-02-08T00:49:41.568Z,986.38
2016-02-08T00:50:41.571Z,986.38
2016-02-08T00:51:41.558Z,986.39
2016-02-08T00:52:41.570Z,986.31
2016-02-08T00:53:41.556Z,986.36
2016-02-08T00:54:41.559Z,986.38
2016-02-08T00:55:41.578Z,986.4
2016-02-08T00:56:41.565Z,986.35
2016-02-08T00:57:41.552Z,986.33
2016-02-08T00:58:41.571Z,986.37
2016-02-08T00:59:41.558Z,986.32
2016-02-08T01:00:41.560Z,986.36
2016-02-08T01:01:41.563Z,986.35
2016-02-08T01:02:41.555Z,986.33
2016-02-08T01:03:41.558Z,986.31
2016-02-08T01:04:41.560Z,986.26
2016-02-08T01:05:41.547Z,986.26
2016-02-08T01:06:41.549Z,986.28
2016-02-08T01:07:41.553Z,986.3
2016-02-08T01:08:41.556Z,986.27
2016-02-08T01:09:41.543Z,986.24
2016-02-08T01:10:41.546Z,986.21
2016-02-08T01:11:41.551Z,986.18
2016-02-08T01:12:41.539Z,986.19
2016-02-08T01:13:41.542Z,986.19
2016-02-08T01:14:41.559Z,986.16
2016-02-08T01:15:41.548Z,986.13
2016-02-08T01:16:41.535Z,986.16
2016-02-08T01:17:41.553Z,986.15
2016-02-08T01:18:41.540Z,986.14
2016-02-08T01:19:41.543Z,986.15
2016-02-08T01:20:41.546Z,986.14
2016-02-08T01:21:41.532Z,986.14
2016-02-08T01:22:41.535Z,986.13
2016-02-08T01:23:41.538Z,986.11
2016-02-08T01:24:41.541Z,986.12
2016-02-08T01:25:41.543Z,986.14
2016-02-08T01:26:41.547Z,986.18
2016-02-08T01:27:41.534Z,986.16
2016-02-08T01:28:41.537Z,986.16
2016-02-08T01:29:41.540Z,986.19
2016-02-08T01:30:41.543Z,986.21
2016-02-08T01:31:41.529Z,986.18
2016-02-08T01:32:41.532Z,986.19
2016-02-08T01:33:41.534Z,986.15
2016-02-08T01:34:41.537Z,986.09
2016-02-08T01:35:41.540Z,986.13
2016-02-08T01:36:41.528Z,986.1
2016-02-08T01:37:41.530Z,986.14
2016-02-08T01:38:41.533Z,986.12
2016-02-08T01:39:41.535Z,986.14
2016-02-08T01:40:41.519Z,986.12
2016-02-08T01:41:41.522Z,986.08
2016-02-08T01:42:41.540Z,986.09
2016-02-08T01:43:41.528Z,986.06
2016-02-08T01:44:41.532Z,986.04
2016-02-08T01:45:41.534Z,986.01
2016-02-08T01:46:41.538Z,985.98
2016-02-08T01:47:41.524Z,985.93
2016-02-08T01:48:41.526Z,985.96
2016-02-08T01:49:41.577Z,985.96
2016-02-08T01:50:41.550Z,985.94
2016-02-08T01:51:41.974Z,985.93
2016-02-08T01:52:41.524Z,985.92
2016-02-08T01:53:41.510Z,985.94
2016-02-08T01:54:41.513Z,985.92
2016-02-08T01:55:41.515Z,985.93
2016-02-08T01:56:41.518Z,985.89
2016-02-08T01:57:41.505Z,985.87
2016-02-08T01:58:41.508Z,985.88
2016-02-08T01:59:41.512Z,985.92
2016-02-08T02:00:41.530Z,985.96
2016-02-08T02:01:41.501Z,985.97
2016-02-08T02:02:41.504Z,985.99
2016-02-08T02:03:41.512Z,985.98
2016-02-08T02:04:41.514Z,986.01
2016-02-08T02:05:41.501Z,986.03
2016-02-08T02:06:41.503Z,986.02
2016-02-08T02:07:41.506Z,985.98
2016-02-08T02:08:41.508Z,985.97
2016-02-08T02:09:41.501Z,986
2016-02-08T02:10:41.504Z,985.97
2016-02-08T02:11:41.506Z,985.94
2016-02-08T02:12:41.509Z,985.98
2016-02-08T02:13:41.497Z,985.93
2016-02-08T02:14:41.499Z,985.95
2016-02-08T02:15:41.486Z,985.91
2016-02-08T02:16:41.489Z,985.91
2016-02-08T02:17:41.492Z,985.88
2016-02-08T02:18:41.494Z,985.83
2016-02-08T02:19:41.497Z,985.82
2016-02-08T02:20:41.484Z,985.83
2016-02-08T02:21:41.487Z,985.82
2016-02-08T02:22:41.489Z,985.82
2016-02-08T02:23:41.492Z,985.87
2016-02-08T02:24:41.481Z,985.88
2016-02-08T02:25:41.484Z,985.84
2016-02-08T02:26:41.486Z,985.85
2016-02-08T02:27:41.488Z,985.9
2016-02-08T02:28:41.475Z,985.89
2016-02-08T02:29:41.478Z,985.89
2016-02-08T02:30:41.481Z,985.94
2016-02-08T02:31:41.468Z,985.92
2016-02-08T02:32:41.470Z,985.86
2016-02-08T02:33:41.474Z,985.91
2016-02-08T02:34:41.476Z,985.85
2016-02-08T02:35:41.464Z,985.83
2016-02-08T02:36:41.467Z,985.82
2016-02-08T02:37:41.470Z,985.77
2016-02-08T02:38:41.459Z,985.76
2016-02-08T02:39:41.478Z,985.71
2016-02-08T02:40:41.466Z,985.73
2016-02-08T02:41:41.455Z,985.71
2016-02-08T02:42:41.458Z,985.7
2016-02-08T02:43:41.446Z,985.59
2016-02-08T02:44:41.448Z,985.65
2016-02-08T02:45:41.451Z,985.61
2016-02-08T02:46:41.456Z,985.55
2016-02-08T02:47:41.443Z,985.53
2016-02-08T02:48:41.445Z,985.5
2016-02-08T02:49:41.448Z,985.48
2016-02-08T02:50:41.434Z,985.4
2016-02-08T02:51:41.438Z,985.42
2016-02-08T02:52:41.426Z,985.38
2016-02-08T02:53:41.429Z,985.37
2016-02-08T02:54:41.433Z,985.37
2016-02-08T02:55:41.436Z,985.36
2016-02-08T02:56:41.423Z,985.34
2016-02-08T02:57:41.426Z,985.34
2016-02-08T02:58:41.429Z,985.31
2016-02-08T02:59:41.416Z,985.3
2016-02-08T03:00:41.418Z,985.3
2016-02-08T03:01:41.421Z,985.29
2016-02-08T03:02:41.409Z,985.29
2016-02-08T03:03:41.411Z,985.26
2016-02-08T03:04:41.415Z,985.3
2016-02-08T03:05:41.401Z,985.31
2016-02-08T03:06:41.403Z,985.32
2016-02-08T03:07:41.407Z,985.36
2016-02-08T03:08:41.394Z,985.4
2016-02-08T03:09:41.397Z,985.37
2016-02-08T03:10:41.400Z,985.33
2016-02-08T03:11:41.388Z,985.33
2016-02-08T03:12:41.391Z,985.31
2016-02-08T03:13:41.377Z,985.32
2016-02-08T03:14:41.380Z,985.33
2016-02-08T03:15:41.383Z,985.24
2016-02-08T03:16:41.385Z,985.22
2016-02-08T03:17:41.374Z,985.23
2016-02-08T03:18:41.376Z,985.23
2016-02-08T03:19:41.378Z,985.2
2016-02-08T03:20:41.366Z,985.21
2016-02-08T03:21:41.373Z,985.17
2016-02-08T03:22:41.376Z,985.13
2016-02-08T03:23:41.363Z,985.13
2016-02-08T03:24:41.366Z,985.07
2016-02-08T03:25:41.352Z,985.04
2016-02-08T03:26:41.355Z,985.03
2016-02-08T03:27:41.358Z,985.05
2016-02-08T03:28:41.361Z,985.05
2016-02-08T03:29:41.349Z,985.04
2016-02-08T03:30:41.352Z,985.03
2016-02-08T03:31:41.338Z,985
2016-02-08T03:32:41.341Z,985
2016-02-08T03:33:41.343Z,984.98
2016-02-08T03:34:41.346Z,984.94
2016-02-08T03:35:41.334Z,984.96
2016-02-08T03:36:41.337Z,984.99
2016-02-08T03:37:41.340Z,984.96
2016-02-08T03:38:41.326Z,984.95
2016-02-08T03:39:41.329Z,984.93
2016-02-08T03:40:41.316Z,984.95
2016-02-08T03:41:41.319Z,984.94
2016-02-08T03:42:41.307Z,984.95
2016-02-08T03:43:41.310Z,984.86
2016-02-08T03:44:41.313Z,984.93
2016-02-08T03:45:41.299Z,984.91
2016-02-08T03:46:41.302Z,984.86
2016-02-08T03:47:41.307Z,984.87
2016-02-08T03:48:41.309Z,984.84
2016-02-08T03:49:41.297Z,984.8
2016-02-08T03:50:41.285Z,984.76
2016-02-08T03:51:41.289Z,984.78
2016-02-08T03:52:41.291Z,984.78
2016-02-08T03:53:41.294Z,984.72
2016-02-08T03:54:41.281Z,984.72
2016-02-08T03:55:41.284Z,984.78
2016-02-08T03:56:41.287Z,984.77
2016-02-08T03:57:41.275Z,984.77
2016-02-08T03:58:41.262Z,984.72
2016-02-08T03:59:41.264Z,984.69
2016-02-08T04:00:41.267Z,984.71
2016-02-08T04:01:41.254Z,984.73
2016-02-08T04:02:41.256Z,984.77
2016-02-08T04:03:41.259Z,984.67
2016-02-08T04:04:41.262Z,984.66
2016-02-08T04:05:41.249Z,984.71
2016-02-08T04:06:41.252Z,984.71
2016-02-08T04:07:41.238Z,984.65
2016-02-08T04:08:41.241Z,984.66
2016-02-08T04:09:41.245Z,984.66
2016-02-08T04:10:41.232Z,984.65
2016-02-08T04:11:41.234Z,984.61
2016-02-08T04:12:41.224Z,984.64
2016-02-08T04:13:41.227Z,984.6
2016-02-08T04:14:41.230Z,984.64
2016-02-08T04:15:41.216Z,984.62
2016-02-08T04:16:41.219Z,984.59
2016-02-08T04:17:41.223Z,984.6
2016-02-08T04:18:41.209Z,984.66
2016-02-08T04:19:41.212Z,984.67
2016-02-08T04:20:41.215Z,984.66
2016-02-08T04:21:41.202Z,984.66
2016-02-08T04:22:41.206Z,984.66
2016-02-08T04:23:41.208Z,984.59
2016-02-08T04:24:41.195Z,984.63
2016-02-08T04:25:41.199Z,984.57
2016-02-08T04:26:41.202Z,984.53
2016-02-08T04:27:41.190Z,984.55
2016-02-08T04:28:41.193Z,984.55
2016-02-08T04:29:41.195Z,984.56
2016-02-08T04:30:41.183Z,984.54
2016-02-08T04:31:41.185Z,984.56
2016-02-08T04:32:41.172Z,984.48
2016-02-08T04:33:41.175Z,984.53
2016-02-08T04:34:41.178Z,984.5
2016-02-08T04:35:41.181Z,984.49
2016-02-08T04:36:41.184Z,984.46
2016-02-08T04:37:41.171Z,984.37
2016-02-08T04:38:41.159Z,984.36
2016-02-08T04:39:41.161Z,984.35
2016-02-08T04:40:41.148Z,984.28
2016-02-08T04:41:41.151Z,984.33
2016-02-08T04:42:41.141Z,984.29
2016-02-08T04:43:41.144Z,984.28
2016-02-08T04:44:41.147Z,984.3
2016-02-08T04:45:41.133Z,984.24
2016-02-08T04:46:41.136Z,984.2
2016-02-08T04:47:41.138Z,984.09
2016-02-08T04:48:41.125Z,984.26
2016-02-08T04:49:41.128Z,984.2
2016-02-08T04:50:41.130Z,984.1
2016-02-08T04:51:41.118Z,984.14
2016-02-08T04:52:41.122Z,984.06
2016-02-08T04:53:41.125Z,984.02
2016-02-08T04:54:41.112Z,983.99
2016-02-08T04:55:41.114Z,984.01
2016-02-08T04:56:41.117Z,983.96
2016-02-08T04:57:41.120Z,983.96
2016-02-08T04:58:41.107Z,983.96
2016-02-08T04:59:41.110Z,983.91
2016-02-08T05:00:41.096Z,983.87
2016-02-08T05:01:41.099Z,983.93
2016-02-08T05:02:41.086Z,983.77
2016-02-08T05:03:41.088Z,983.78
2016-02-08T05:04:41.088Z,983.73
2016-02-08T05:05:41.076Z,983.75
2016-02-08T05:06:41.079Z,983.7
2016-02-08T05:07:41.082Z,983.72
2016-02-08T05:08:41.068Z,983.79
2016-02-08T05:09:41.071Z,983.68
2016-02-08T05:10:41.073Z,983.62
2016-02-08T05:11:41.060Z,983.7
2016-02-08T05:12:41.058Z,983.65
2016-02-08T05:13:41.061Z,983.68
2016-02-08T05:14:41.048Z,983.66
2016-02-08T05:15:41.050Z,983.67
2016-02-08T05:16:41.052Z,983.55
2016-02-08T05:17:41.039Z,983.58
2016-02-08T05:18:41.042Z,983.53
2016-02-08T05:19:41.046Z,983.51
2016-02-08T05:20:41.033Z,983.4
2016-02-08T05:21:41.037Z,983.38
2016-02-08T05:22:41.032Z,983.4
2016-02-08T05:23:41.025Z,983.32
2016-02-08T05:24:41.003Z,983.34
2016-02-08T05:25:40.997Z,983.35
2016-02-08T05:26:40.975Z,983.4
2016-02-08T05:27:40.974Z,983.33
2016-02-08T05:28:40.959Z,983.33
2016-02-08T05:29:40.958Z,983.37
2016-02-08T05:30:40.957Z,983.37
2016-02-08T05:31:40.957Z,983.36
2016-02-08T05:32:40.942Z,983.32
2016-02-08T05:33:40.943Z,983.34
2016-02-08T05:34:40.930Z,983.32
2016-02-08T05:35:40.931Z,983.35
2016-02-08T05:36:41.042Z,983.33
2016-02-08T05:37:40.919Z,983.23
2016-02-08T05:38:40.922Z,983.2
2016-02-08T05:39:40.908Z,983.2
2016-02-08T05:40:40.912Z,983.18
2016-02-08T05:41:40.902Z,983.11
2016-02-08T05:42:40.904Z,983.05
2016-02-08T05:43:40.908Z,983.13
2016-02-08T05:44:40.895Z,983.08
2016-02-08T05:45:40.898Z,983.1
2016-02-08T05:46:40.900Z,983.09
2016-02-08T05:47:40.887Z,983.07
2016-02-08T05:48:40.906Z,983.12
2016-02-08T05:49:40.877Z,983.09
2016-02-08T05:50:40.879Z,983
2016-02-08T05:51:40.883Z,983.05
2016-02-08T05:52:40.869Z,982.98
2016-02-08T05:53:40.872Z,983.02
2016-02-08T05:54:40.875Z,983.04
2016-02-08T05:55:40.861Z,983.05
2016-02-08T05:56:40.864Z,983.02
2016-02-08T05:57:40.867Z,983.06
2016-02-08T05:58:40.854Z,983.08
2016-02-08T05:59:40.857Z,983.12
2016-02-08T06:00:40.844Z,983.09
2016-02-08T06:01:40.863Z,983.12
2016-02-08T06:02:40.851Z,983.11
2016-02-08T06:03:40.838Z,983.01
2016-02-08T06:04:40.840Z,983.07
2016-02-08T06:05:40.844Z,983.06
2016-02-08T06:06:40.830Z,983.06
2016-02-08T06:07:40.832Z,983.05
2016-02-08T06:08:40.819Z,983.02
2016-02-08T06:09:40.822Z,982.97
2016-02-08T06:10:40.825Z,983
2016-02-08T06:11:40.812Z,983.01
2016-02-08T06:12:40.815Z,982.99
2016-02-08T06:13:40.804Z,982.93
2016-02-08T06:14:40.808Z,982.86
2016-02-08T06:15:40.811Z,982.82
2016-02-08T06:16:40.798Z,982.87
2016-02-08T06:17:40.786Z,982.94
2016-02-08T06:18:40.788Z,983.02
2016-02-08T06:19:40.791Z,983.05
2016-02-08T06:20:40.778Z,983.03
2016-02-08T06:21:40.780Z,983.01
2016-02-08T06:22:40.783Z,983.01
2016-02-08T06:23:40.770Z,983.04
2016-02-08T06:24:40.774Z,983.02
2016-02-08T06:25:40.776Z,983.02
2016-02-08T06:26:40.763Z,983.05
2016-02-08T06:27:40.782Z,983.04
2016-02-08T06:28:40.755Z,982.82
2016-02-08T06:29:40.758Z,982.84
2016-02-08T06:30:40.745Z,982.89
2016-02-08T06:31:40.779Z,982.82
2016-02-08T06:32:40.750Z,982.79
2016-02-08T06:33:40.753Z,982.82
2016-02-08T06:34:40.740Z,982.88
2016-02-08T06:35:40.758Z,982.82
2016-02-08T06:36:40.735Z,982.81
2016-02-08T06:37:40.737Z,982.84
2016-02-08T06:38:40.740Z,982.79
2016-02-08T06:39:40.727Z,982.73
2016-02-08T06:40:40.729Z,982.68
2016-02-08T06:41:40.717Z,982.71
2016-02-08T06:42:40.720Z,982.72
2016-02-08T06:43:40.707Z,982.69
2016-02-08T06:44:40.712Z,982.73
2016-02-08T06:45:40.700Z,982.81
2016-02-08T06:46:40.702Z,982.74
2016-02-08T06:47:40.705Z,982.79
2016-02-08T06:48:40.692Z,982.73
2016-02-08T06:49:40.694Z,982.71
2016-02-08T06:50:40.683Z,982.83
2016-02-08T06:51:40.686Z,982.8
2016-02-08T06:52:40.689Z,982.8
2016-02-08T06:53:40.676Z,982.84
2016-02-08T06:54:40.679Z,982.84
2016-02-08T06:55:40.666Z,982.89
2016-02-08T06:56:40.668Z,982.92
2016-02-08T06:57:40.671Z,982.91
2016-02-08T06:58:40.660Z,982.97
2016-02-08T06:59:40.662Z,982.95
2016-02-08T07:00:40.665Z,982.92
2016-02-08T07:01:40.668Z,983
2016-02-08T07:02:40.655Z,982.97
2016-02-08T07:03:40.674Z,982.93
2016-02-08T07:04:40.646Z,982.95
2016-02-08T07:05:40.632Z,982.92
2016-02-08T07:06:40.640Z,982.89
2016-02-08T07:07:40.642Z,982.94
2016-02-08T07:08:40.629Z,982.85
2016-02-08T07:09:40.633Z,982.83
2016-02-08T07:10:40.619Z,982.9
2016-02-08T07:11:40.623Z,982.94
2016-02-08T07:12:40.625Z,982.92
2016-02-08T07:13:40.612Z,982.87
2016-02-08T07:14:40.617Z,982.96
2016-02-08T07:15:40.619Z,982.96
2016-02-08T07:16:40.607Z,982.9
2016-02-08T07:17:40.610Z,982.89
2016-02-08T07:18:40.612Z,982.86
2016-02-08T07:19:40.599Z,982.87
2016-02-08T07:20:40.602Z,982.91
2016-02-08T07:21:40.590Z,982.88
2016-02-08T07:22:40.592Z,982.88
2016-02-08T07:23:40.579Z,982.85
2016-02-08T07:24:40.598Z,982.83
2016-02-08T07:25:40.586Z,982.81
2016-02-08T07:26:40.588Z,982.8
2016-02-08T07:27:40.574Z,982.85
2016-02-08T07:28:40.578Z,982.7
2016-02-08T07:29:40.580Z,982.71
2016-02-08T07:30:40.567Z,982.67
2016-02-08T07:31:40.571Z,982.73
2016-02-08T07:32:40.573Z,982.69
2016-02-08T07:33:40.560Z,982.58
2016-02-08T07:34:40.563Z,982.57
2016-02-08T07:35:40.549Z,982.58
2016-02-08T07:36:40.552Z,982.57
2016-02-08T07:37:40.555Z,982.5
2016-02-08T07:38:40.558Z,982.48
2016-02-08T07:39:40.546Z,982.51
2016-02-08T07:40:40.658Z,982.53
2016-02-08T07:41:40.615Z,982.44
2016-02-08T07:42:40.618Z,982.47
2016-02-08T07:43:40.543Z,982.55
2016-02-08T07:44:40.610Z,982.37
2016-02-08T07:45:40.534Z,982.42
2016-02-08T07:46:40.605Z,982.38
2016-02-08T07:47:40.607Z,982.24
2016-02-08T07:48:40.532Z,982.26
2016-02-08T07:49:40.613Z,982.25
2016-02-08T07:50:40.600Z,982.24
2016-02-08T07:51:40.587Z,982.03
2016-02-08T07:52:40.589Z,982.06
2016-02-08T07:53:40.530Z,982
2016-02-08T07:54:40.626Z,982.03
2016-02-08T07:55:40.613Z,981.95
2016-02-08T07:56:40.632Z,981.97
2016-02-08T07:57:40.524Z,981.74
2016-02-08T07:58:40.574Z,981.69
2016-02-08T07:59:40.609Z,981.81
2016-02-08T08:00:40.503Z,981.79
2016-02-08T08:01:40.538Z,981.83
2016-02-08T08:02:40.509Z,981.75
2016-02-08T08:03:40.574Z,981.67
2016-02-08T08:04:40.515Z,981.66
2016-02-08T08:05:40.580Z,981.65
2016-02-08T08:06:40.535Z,981.51
2016-02-08T08:07:40.553Z,981.64
2016-02-08T08:08:40.572Z,981.65
2016-02-08T08:09:40.575Z,981.55
2016-02-08T08:10:40.499Z,981.54
2016-02-08T08:11:40.486Z,981.54
2016-02-08T08:12:40.567Z,981.52
2016-02-08T08:13:40.527Z,981.51
2016-02-08T08:14:40.484Z,981.54
2016-02-08T08:15:40.549Z,981.52
2016-02-08T08:16:40.488Z,981.59
2016-02-08T08:17:40.491Z,981.5
2016-02-08T08:18:40.479Z,981.42
2016-02-08T08:19:40.559Z,981.33
2016-02-08T08:20:40.484Z,981.39
2016-02-08T08:21:40.488Z,981.31
2016-02-08T08:22:40.474Z,981.3
2016-02-08T08:23:40.556Z,981.28
2016-02-08T08:24:40.480Z,981.38
2016-02-08T08:25:40.545Z,981.34
2016-02-08T08:26:40.487Z,981.2
2016-02-08T08:27:40.474Z,981.17
2016-02-08T08:28:40.476Z,981.24
2016-02-08T08:29:40.529Z,981.12
2016-02-08T08:30:40.484Z,981.11
2016-02-08T08:31:40.487Z,981.27
2016-02-08T08:32:40.536Z,981.04
2016-02-08T08:33:40.539Z,981.11
2016-02-08T08:34:40.542Z,981.04
2016-02-08T08:35:40.467Z,980.79
2016-02-08T08:36:40.534Z,981.03
2016-02-08T08:37:40.473Z,981.01
2016-02-08T08:38:40.460Z,981.02
2016-02-08T08:39:40.464Z,980.89
2016-02-08T08:40:40.466Z,980.93
2016-02-08T08:41:40.546Z,980.89
2016-02-08T08:42:40.457Z,980.85
2016-02-08T08:43:40.459Z,980.86
2016-02-08T08:44:40.462Z,980.81
2016-02-08T08:45:40.511Z,980.78
2016-02-08T08:46:40.451Z,980.82
2016-02-08T08:47:40.517Z,980.81
2016-02-08T08:48:40.535Z,980.9
2016-02-08T08:49:40.460Z,980.94
2016-02-08T08:50:40.463Z,980.89
2016-02-08T08:51:40.451Z,980.88
2016-02-08T08:52:40.455Z,980.88
2016-02-08T08:53:40.457Z,980.99
2016-02-08T08:54:40.459Z,980.94
2016-02-08T08:55:40.447Z,980.87
2016-02-08T08:56:40.450Z,980.77
2016-02-08T08:57:40.453Z,980.76
2016-02-08T08:58:40.517Z,980.71
2016-02-08T08:59:40.520Z,980.85
2016-02-08T09:00:40.523Z,980.96
2016-02-08T09:01:40.543Z,980.88
2016-02-08T09:02:40.451Z,980.76
2016-02-08T09:03:40.517Z,980.74
2016-02-08T09:04:40.446Z,980.69
2016-02-08T09:05:40.448Z,980.75
2016-02-08T09:06:40.435Z,980.87
2016-02-08T09:07:40.438Z,980.69
2016-02-08T09:08:40.440Z,980.78
2016-02-08T09:09:40.444Z,980.7
2016-02-08T09:10:40.446Z,980.69
2016-02-08T09:11:40.436Z,980.67
2016-02-08T09:12:40.439Z,980.68
2016-02-08T09:13:40.441Z,980.7
2016-02-08T09:14:40.446Z,980.46
2016-02-08T09:15:40.433Z,980.3
2016-02-08T09:16:40.435Z,980.41
2016-02-08T09:17:40.439Z,980.46
2016-02-08T09:18:40.442Z,980.37
2016-02-08T09:19:40.429Z,980.32
2016-02-08T09:20:40.434Z,980.37
2016-02-08T09:21:40.437Z,980.5
2016-02-08T09:22:40.440Z,980.58
2016-02-08T09:23:40.442Z,980.43
2016-02-08T09:24:40.430Z,980.32
2016-02-08T09:25:40.432Z,980.41
2016-02-08T09:26:40.434Z,980.46
2016-02-08T09:27:40.438Z,980.47
2016-02-08T09:28:40.440Z,980.33
2016-02-08T09:29:40.427Z,980.4
2016-02-08T09:30:40.431Z,980.4
2016-02-08T09:31:40.433Z,980.46
2016-02-08T09:32:40.420Z,980.4
2016-02-08T09:33:40.439Z,980.52
2016-02-08T09:34:40.425Z,980.55
2016-02-08T09:35:40.428Z,980.52
2016-02-08T09:36:40.430Z,980.44
2016-02-08T09:37:40.433Z,980.49
2016-02-08T09:38:40.436Z,980.52
2016-02-08T09:39:40.423Z,980.61
2016-02-08T09:40:40.427Z,980.47
2016-02-08T09:41:40.429Z,980.52
2016-02-08T09:42:40.416Z,980.49
2016-02-08T09:43:40.435Z,980.44
2016-02-08T09:44:40.424Z,980.56
2016-02-08T09:45:40.427Z,980.54
2016-02-08T09:46:40.430Z,980.49
2016-02-08T09:47:40.416Z,980.52
2016-02-08T09:48:40.419Z,980.54
2016-02-08T09:49:40.421Z,980.59
2016-02-08T09:50:40.424Z,980.73
2016-02-08T09:51:40.427Z,980.65
2016-02-08T09:52:40.413Z,980.66
2016-02-08T09:53:40.435Z,980.76
2016-02-08T09:54:40.500Z,980.81
2016-02-08T09:55:40.533Z,980.82
2016-02-08T09:56:59.881Z,980.79
2016-02-08T10:02:08.519Z,981.08
2016-02-08T10:03:02.256Z,981.11
2016-02-08T10:04:02.242Z,981.11
2016-02-08T10:05:02.355Z,981.16
2016-02-08T10:06:02.247Z,981.23
2016-02-08T10:07:02.381Z,981.13
2016-02-08T10:08:02.336Z,981.16
2016-02-08T10:09:02.246Z,981.1
2016-02-08T10:10:02.249Z,981.1
2016-02-08T10:11:02.330Z,981.15
2016-02-08T10:12:02.317Z,981.06
2016-02-08T10:13:02.257Z,980.97
2016-02-08T10:14:02.322Z,980.98
2016-02-08T10:15:02.311Z,980.92
2016-02-08T10:16:02.251Z,981.02
2016-02-08T10:17:02.254Z,981
2016-02-08T10:18:02.257Z,981.08
2016-02-08T10:19:02.244Z,981.02
2016-02-08T10:20:02.248Z,980.96
2016-02-08T10:21:02.250Z,981.01
2016-02-08T10:22:02.316Z,980.9
2016-02-08T10:23:02.256Z,980.87
2016-02-08T10:24:02.321Z,980.83
2016-02-08T10:25:02.386Z,980.79
2016-02-08T10:26:02.249Z,980.69
2016-02-08T10:27:02.266Z,980.63
2016-02-08T10:28:02.317Z,980.6
2016-02-08T10:29:02.319Z,980.57
2016-02-08T10:30:02.322Z,980.47
2016-02-08T10:31:02.246Z,980.34
2016-02-08T10:32:02.359Z,980.38
2016-02-08T10:33:02.268Z,980.21
2016-02-08T10:34:02.333Z,980.21
2016-02-08T10:35:02.274Z,980.19
2016-02-08T10:36:02.354Z,980.11
2016-02-08T10:37:02.263Z,980.03
2016-02-08T10:38:02.250Z,979.87
2016-02-08T10:39:02.330Z,979.91
2016-02-08T10:40:02.319Z,980
2016-02-08T10:41:02.415Z,979.9
2016-02-08T10:42:02.262Z,979.93
2016-02-08T10:43:02.265Z,979.92
2016-02-08T10:44:02.345Z,979.9
2016-02-08T10:45:02.443Z,979.87
2016-02-08T10:46:02.289Z,979.82
2016-02-08T10:47:02.261Z,979.99
2016-02-08T10:48:02.263Z,980.04
2016-02-08T10:49:02.282Z,980.01
2016-02-08T10:50:02.628Z,979.98
2016-02-08T10:51:02.318Z,979.98
2016-02-08T10:52:02.258Z,980.05
2016-02-08T10:53:02.339Z,980.04
2016-02-08T10:54:02.372Z,980.09
2016-02-08T10:55:02.329Z,980.12
2016-02-08T10:56:02.346Z,980.1
2016-02-08T10:57:02.288Z,980.06
2016-02-08T10:58:02.337Z,980.07
2016-02-08T10:59:02.355Z,980.03
2016-02-08T11:00:02.280Z,979.87
2016-02-08T11:01:02.282Z,979.87
2016-02-08T11:02:02.269Z,979.84
2016-02-08T11:03:02.351Z,979.97
2016-02-08T11:04:02.354Z,979.97
2016-02-08T11:05:02.560Z,979.92
2016-02-08T11:06:02.312Z,979.75
2016-02-08T11:07:02.284Z,979.79
2016-02-08T11:08:02.349Z,979.8
2016-02-08T11:09:02.355Z,979.85
2016-02-08T11:10:02.280Z,979.69
2016-02-08T11:11:02.287Z,979.64
2016-02-08T11:12:02.429Z,979.57
2016-02-08T11:13:02.353Z,979.57
2016-02-08T11:14:02.450Z,979.53
2016-02-08T11:15:02.297Z,979.62
2016-02-08T11:16:02.300Z,979.54
2016-02-08T11:17:02.381Z,979.58
2016-02-08T11:18:02.290Z,979.58
2016-02-08T11:19:02.293Z,979.54
2016-02-08T11:20:02.357Z,979.53
2016-02-08T11:21:02.361Z,979.57
2016-02-08T11:22:02.364Z,979.7
2016-02-08T11:23:02.366Z,979.69
2016-02-08T11:24:02.369Z,979.65
2016-02-08T11:25:02.404Z,979.62
2016-02-08T11:26:02.376Z,979.56
2016-02-08T11:27:02.378Z,979.46
2016-02-08T11:28:02.303Z,979.42
2016-02-08T11:29:02.306Z,979.41
2016-02-08T11:30:02.312Z,979.38
2016-02-08T11:31:02.315Z,979.41
2016-02-08T11:32:02.396Z,979.42
2016-02-08T11:33:02.384Z,979.43
2016-02-08T11:34:02.323Z,979.47
2016-02-08T11:35:02.404Z,979.42
2016-02-08T11:36:02.391Z,979.37
2016-02-08T11:37:02.316Z,979.3
2016-02-08T11:38:02.451Z,979.26
2016-02-08T11:39:02.422Z,979.24
2016-02-08T11:40:02.394Z,979.22
2016-02-08T11:41:02.491Z,979.23
2016-02-08T11:42:02.400Z,979.22
2016-02-08T11:43:02.324Z,979.21
2016-02-08T11:44:02.422Z,979.2
2016-02-08T11:45:02.332Z,979.15
2016-02-08T11:46:02.335Z,978.99
2016-02-08T11:47:02.416Z,979.16
2016-02-08T11:48:02.341Z,979.05
2016-02-08T11:49:02.344Z,979.1
2016-02-08T11:50:02.455Z,978.98
2016-02-08T11:51:02.411Z,978.99
2016-02-08T11:52:02.806Z,979
2016-02-08T11:53:02.542Z,979.01
2016-02-08T11:54:02.389Z,978.92
2016-02-08T11:55:02.360Z,978.92
2016-02-08T11:56:02.426Z,978.88
2016-02-08T11:57:02.542Z,978.86
2016-02-08T11:58:02.373Z,978.86
2016-02-08T11:59:02.360Z,978.92
2016-02-08T12:00:02.428Z,978.91
2016-02-08T12:01:02.369Z,978.96
2016-02-08T12:02:02.371Z,979.01
2016-02-08T12:03:02.374Z,978.9
2016-02-08T12:04:02.471Z,978.85
2016-02-08T12:05:02.443Z,978.83
2016-02-08T12:06:02.461Z,978.83
2016-02-08T12:07:02.453Z,978.84
2016-02-08T12:08:02.441Z,978.79
2016-02-08T12:09:02.458Z,978.77
2016-02-08T12:10:02.399Z,978.76
2016-02-08T12:11:02.463Z,978.69
2016-02-08T12:12:02.389Z,978.72
2016-02-08T12:13:02.392Z,978.75
2016-02-08T12:14:02.472Z,978.71
2016-02-08T12:15:02.414Z,978.62
2016-02-08T12:16:02.416Z,978.58
2016-02-08T12:17:02.466Z,978.57
2016-02-08T12:18:02.483Z,978.54
2016-02-08T12:19:02.424Z,978.46
2016-02-08T12:20:02.442Z,978.43
2016-02-08T12:21:02.430Z,978.3
2016-02-08T12:22:02.432Z,978.25
2016-02-08T12:23:02.528Z,978.24
2016-02-08T12:24:02.500Z,978.09
2016-02-08T12:25:02.518Z,978.18
2016-02-08T12:26:02.443Z,978.15
2016-02-08T12:27:02.603Z,978.18
2016-02-08T12:28:02.527Z,978.13
2016-02-08T12:29:02.530Z,978.21
2016-02-08T12:30:02.517Z,978.23
2016-02-08T12:31:02.550Z,978.27
2016-02-08T12:32:02.538Z,978.25
2016-02-08T12:33:02.541Z,978.07
2016-02-08T12:34:02.480Z,978.08
2016-02-08T12:35:02.484Z,978.08
2016-02-08T12:36:02.565Z,978.07